sensor_id;sensor_type;location;lat;lon;timestamp;P1;durP1;ratioP1;P2;durP2;ratioP2
85265;SDS011;75676;49.522;19.724;2024-02-15T00:01:41;9.05;;;4.07;;
85265;SDS011;75676;49.522;19.724;2024-02-15T00:04:07;8.15;;;3.63;;
85265;SDS011;75676;49.522;19.724;2024-02-15T00:06:33;10.02;;;4.72;;
85265;SDS011;75676;49.522;19.724;2024-02-15T00:09:00;11.38;;;4.47;;
85265;SDS011;75676;49.522;19.724;2024-02-15T00:11:26;10.15;;;4.30;;
85265;SDS011;75676;49.522;19.724;2024-02-15T00:13:52;12.25;;;4.75;;
85265;SDS011;75676;49.522;19.724;2024-02-15T00:16:17;9.90;;;4.13;;
85265;SDS011;75676;49.522;19.724;2024-02-15T00:18:43;10.02;;;3.90;;
85265;SDS011;75676;49.522;19.724;2024-02-15T00:21:10;11.43;;;4.55;;
85265;SDS011;75676;49.522;19.724;2024-02-15T00:23:36;10.52;;;4.68;;
85265;SDS011;75676;49.522;19.724;2024-02-15T00:26:02;14.98;;;3.55;;
85265;SDS011;75676;49.522;19.724;2024-02-15T00:28:29;12.40;;;5.07;;
85265;SDS011;75676;49.522;19.724;2024-02-15T00:30:55;9.63;;;4.63;;
85265;SDS011;75676;49.522;19.724;2024-02-15T00:33:20;12.25;;;4.53;;
85265;SDS011;75676;49.522;19.724;2024-02-15T00:35:47;12.23;;;4.78;;
85265;SDS011;75676;49.522;19.724;2024-02-15T00:38:15;6.82;;;3.10;;
85265;SDS011;75676;49.522;19.724;2024-02-15T00:40:41;11.68;;;4.38;;
85265;SDS011;75676;49.522;19.724;2024-02-15T00:43:08;10.18;;;4.13;;
85265;SDS011;75676;49.522;19.724;2024-02-15T00:45:33;11.10;;;4.93;;
85265;SDS011;75676;49.522;19.724;2024-02-15T00:47:59;13.35;;;4.43;;
85265;SDS011;75676;49.522;19.724;2024-02-15T00:50:25;7.63;;;3.90;;
85265;SDS011;75676;49.522;19.724;2024-02-15T00:52:51;9.60;;;3.92;;
85265;SDS011;75676;49.522;19.724;2024-02-15T00:55:16;7.57;;;3.55;;
85265;SDS011;75676;49.522;19.724;2024-02-15T00:57:42;7.93;;;3.53;;
85265;SDS011;75676;49.522;19.724;2024-02-15T01:00:08;11.18;;;4.57;;
85265;SDS011;75676;49.522;19.724;2024-02-15T01:02:35;8.90;;;4.55;;
85265;SDS011;75676;49.522;19.724;2024-02-15T01:05:01;12.07;;;5.85;;
85265;SDS011;75676;49.522;19.724;2024-02-15T01:07:27;11.07;;;5.38;;
85265;SDS011;75676;49.522;19.724;2024-02-15T01:09:53;8.90;;;4.25;;
85265;SDS011;75676;49.522;19.724;2024-02-15T01:12:19;13.35;;;5.32;;
85265;SDS011;75676;49.522;19.724;2024-02-15T01:14:46;14.48;;;5.95;;
85265;SDS011;75676;49.522;19.724;2024-02-15T01:17:12;14.35;;;6.00;;
85265;SDS011;75676;49.522;19.724;2024-02-15T01:19:38;14.93;;;6.70;;
85265;SDS011;75676;49.522;19.724;2024-02-15T01:22:04;19.10;;;7.28;;
85265;SDS011;75676;49.522;19.724;2024-02-15T01:24:31;10.77;;;5.43;;
85265;SDS011;75676;49.522;19.724;2024-02-15T01:26:57;16.35;;;6.63;;
85265;SDS011;75676;49.522;19.724;2024-02-15T01:29:23;16.88;;;6.57;;
85265;SDS011;75676;49.522;19.724;2024-02-15T01:31:51;16.30;;;7.05;;
85265;SDS011;75676;49.522;19.724;2024-02-15T01:34:17;13.43;;;5.82;;
85265;SDS011;75676;49.522;19.724;2024-02-15T01:36:42;11.25;;;5.60;;
85265;SDS011;75676;49.522;19.724;2024-02-15T01:39:08;10.98;;;4.43;;
85265;SDS011;75676;49.522;19.724;2024-02-15T01:41:34;9.88;;;3.90;;
85265;SDS011;75676;49.522;19.724;2024-02-15T01:43:59;11.05;;;4.30;;
85265;SDS011;75676;49.522;19.724;2024-02-15T01:46:26;11.23;;;4.40;;
85265;SDS011;75676;49.522;19.724;2024-02-15T01:48:54;10.88;;;4.80;;
85265;SDS011;75676;49.522;19.724;2024-02-15T01:51:21;13.60;;;4.45;;
85265;SDS011;75676;49.522;19.724;2024-02-15T01:53:49;10.57;;;4.78;;
85265;SDS011;75676;49.522;19.724;2024-02-15T01:56:15;12.07;;;4.93;;
85265;SDS011;75676;49.522;19.724;2024-02-15T01:58:42;12.25;;;5.40;;
85265;SDS011;75676;49.522;19.724;2024-02-15T02:01:11;12.57;;;4.65;;
85265;SDS011;75676;49.522;19.724;2024-02-15T02:03:38;12.80;;;4.65;;
85265;SDS011;75676;49.522;19.724;2024-02-15T02:06:04;12.48;;;4.88;;
85265;SDS011;75676;49.522;19.724;2024-02-15T02:08:30;9.40;;;3.95;;
85265;SDS011;75676;49.522;19.724;2024-02-15T02:10:56;9.57;;;4.15;;
85265;SDS011;75676;49.522;19.724;2024-02-15T02:13:23;7.90;;;4.10;;
85265;SDS011;75676;49.522;19.724;2024-02-15T02:15:49;6.75;;;3.17;;
85265;SDS011;75676;49.522;19.724;2024-02-15T02:18:15;11.68;;;4.82;;
85265;SDS011;75676;49.522;19.724;2024-02-15T02:20:40;11.10;;;4.50;;
85265;SDS011;75676;49.522;19.724;2024-02-15T02:23:13;9.98;;;3.85;;
85265;SDS011;75676;49.522;19.724;2024-02-15T02:25:40;14.70;;;6.45;;
85265;SDS011;75676;49.522;19.724;2024-02-15T02:28:09;10.07;;;4.53;;
85265;SDS011;75676;49.522;19.724;2024-02-15T02:30:36;13.63;;;5.35;;
85265;SDS011;75676;49.522;19.724;2024-02-15T02:33:01;11.32;;;4.78;;
85265;SDS011;75676;49.522;19.724;2024-02-15T02:35:27;10.40;;;4.72;;
85265;SDS011;75676;49.522;19.724;2024-02-15T02:37:55;10.93;;;4.60;;
85265;SDS011;75676;49.522;19.724;2024-02-15T02:40:22;9.85;;;4.22;;
85265;SDS011;75676;49.522;19.724;2024-02-15T02:42:48;8.98;;;4.25;;
85265;SDS011;75676;49.522;19.724;2024-02-15T02:45:18;10.65;;;4.43;;
85265;SDS011;75676;49.522;19.724;2024-02-15T02:47:56;11.18;;;4.43;;
85265;SDS011;75676;49.522;19.724;2024-02-15T02:50:22;9.65;;;4.05;;
85265;SDS011;75676;49.522;19.724;2024-02-15T02:52:49;8.27;;;3.90;;
85265;SDS011;75676;49.522;19.724;2024-02-15T02:55:15;8.25;;;4.45;;
85265;SDS011;75676;49.522;19.724;2024-02-15T02:57:41;11.88;;;5.22;;
85265;SDS011;75676;49.522;19.724;2024-02-15T03:00:08;12.18;;;4.93;;
85265;SDS011;75676;49.522;19.724;2024-02-15T03:02:42;9.65;;;4.80;;
85265;SDS011;75676;49.522;19.724;2024-02-15T03:05:11;13.75;;;5.10;;
85265;SDS011;75676;49.522;19.724;2024-02-15T03:07:38;13.25;;;5.47;;
85265;SDS011;75676;49.522;19.724;2024-02-15T03:10:07;13.15;;;5.45;;
85265;SDS011;75676;49.522;19.724;2024-02-15T03:12:35;12.18;;;5.18;;
85265;SDS011;75676;49.522;19.724;2024-02-15T03:15:05;8.77;;;4.60;;
85265;SDS011;75676;49.522;19.724;2024-02-15T03:17:38;14.88;;;5.15;;
85265;SDS011;75676;49.522;19.724;2024-02-15T03:20:08;10.35;;;4.72;;
85265;SDS011;75676;49.522;19.724;2024-02-15T03:22:55;19.55;;;6.25;;
85265;SDS011;75676;49.522;19.724;2024-02-15T03:25:22;17.20;;;6.07;;
85265;SDS011;75676;49.522;19.724;2024-02-15T03:27:51;18.30;;;6.57;;
85265;SDS011;75676;49.522;19.724;2024-02-15T03:30:18;15.80;;;6.32;;
85265;SDS011;75676;49.522;19.724;2024-02-15T03:32:45;13.77;;;6.18;;
85265;SDS011;75676;49.522;19.724;2024-02-15T03:35:14;15.75;;;6.32;;
85265;SDS011;75676;49.522;19.724;2024-02-15T03:37:40;15.43;;;7.05;;
85265;SDS011;75676;49.522;19.724;2024-02-15T03:40:07;15.27;;;6.45;;
85265;SDS011;75676;49.522;19.724;2024-02-15T03:42:34;14.38;;;5.43;;
85265;SDS011;75676;49.522;19.724;2024-02-15T03:45:06;12.38;;;5.38;;
85265;SDS011;75676;49.522;19.724;2024-02-15T03:47:32;14.73;;;5.43;;
85265;SDS011;75676;49.522;19.724;2024-02-15T03:50:07;11.60;;;5.03;;
85265;SDS011;75676;49.522;19.724;2024-02-15T03:52:35;15.85;;;5.22;;
85265;SDS011;75676;49.522;19.724;2024-02-15T03:55:01;13.95;;;5.55;;
85265;SDS011;75676;49.522;19.724;2024-02-15T03:57:28;13.52;;;5.95;;
85265;SDS011;75676;49.522;19.724;2024-02-15T03:59:54;14.18;;;5.72;;
85265;SDS011;75676;49.522;19.724;2024-02-15T04:02:22;15.63;;;6.45;;
85265;SDS011;75676;49.522;19.724;2024-02-15T04:04:54;17.17;;;7.80;;
85265;SDS011;75676;49.522;19.724;2024-02-15T04:07:21;14.07;;;5.93;;
85265;SDS011;75676;49.522;19.724;2024-02-15T04:09:53;21.42;;;8.55;;
85265;SDS011;75676;49.522;19.724;2024-02-15T04:12:19;15.55;;;6.82;;
85265;SDS011;75676;49.522;19.724;2024-02-15T04:14:45;19.73;;;7.35;;
85265;SDS011;75676;49.522;19.724;2024-02-15T04:17:27;16.98;;;6.93;;
85265;SDS011;75676;49.522;19.724;2024-02-15T04:19:52;12.52;;;5.70;;
85265;SDS011;75676;49.522;19.724;2024-02-15T04:22:19;12.73;;;5.57;;
85265;SDS011;75676;49.522;19.724;2024-02-15T04:24:45;15.82;;;6.60;;
85265;SDS011;75676;49.522;19.724;2024-02-15T04:27:11;12.02;;;5.20;;
85265;SDS011;75676;49.522;19.724;2024-02-15T04:29:40;14.20;;;5.68;;
85265;SDS011;75676;49.522;19.724;2024-02-15T04:32:07;12.98;;;5.35;;
85265;SDS011;75676;49.522;19.724;2024-02-15T04:34:37;15.15;;;4.95;;
85265;SDS011;75676;49.522;19.724;2024-02-15T04:37:03;12.13;;;4.97;;
85265;SDS011;75676;49.522;19.724;2024-02-15T04:39:32;12.98;;;6.00;;
85265;SDS011;75676;49.522;19.724;2024-02-15T04:42:05;19.40;;;4.55;;
85265;SDS011;75676;49.522;19.724;2024-02-15T04:44:33;11.70;;;4.07;;
85265;SDS011;75676;49.522;19.724;2024-02-15T04:47:03;10.27;;;3.53;;
85265;SDS011;75676;49.522;19.724;2024-02-15T04:49:29;8.73;;;4.10;;
85265;SDS011;75676;49.522;19.724;2024-02-15T04:51:55;14.73;;;3.95;;
85265;SDS011;75676;49.522;19.724;2024-02-15T04:54:24;10.45;;;3.40;;
85265;SDS011;75676;49.522;19.724;2024-02-15T04:56:49;7.13;;;3.08;;
85265;SDS011;75676;49.522;19.724;2024-02-15T04:59:20;11.93;;;4.13;;
85265;SDS011;75676;49.522;19.724;2024-02-15T05:01:47;8.88;;;3.85;;
85265;SDS011;75676;49.522;19.724;2024-02-15T05:04:14;9.48;;;3.83;;
85265;SDS011;75676;49.522;19.724;2024-02-15T05:06:40;12.43;;;3.50;;
85265;SDS011;75676;49.522;19.724;2024-02-15T05:09:06;7.38;;;2.67;;
85265;SDS011;75676;49.522;19.724;2024-02-15T05:11:38;7.85;;;3.25;;
85265;SDS011;75676;49.522;19.724;2024-02-15T05:14:11;6.82;;;3.20;;
85265;SDS011;75676;49.522;19.724;2024-02-15T05:16:38;7.60;;;3.58;;
85265;SDS011;75676;49.522;19.724;2024-02-15T05:19:12;6.60;;;3.13;;
85265;SDS011;75676;49.522;19.724;2024-02-15T05:21:39;11.02;;;2.72;;
85265;SDS011;75676;49.522;19.724;2024-02-15T05:24:06;8.63;;;3.28;;
85265;SDS011;75676;49.522;19.724;2024-02-15T05:26:31;7.75;;;3.75;;
85265;SDS011;75676;49.522;19.724;2024-02-15T05:28:58;10.77;;;3.65;;
85265;SDS011;75676;49.522;19.724;2024-02-15T05:31:24;7.30;;;3.65;;
85265;SDS011;75676;49.522;19.724;2024-02-15T05:33:53;8.45;;;3.67;;
85265;SDS011;75676;49.522;19.724;2024-02-15T05:36:19;8.48;;;3.42;;
85265;SDS011;75676;49.522;19.724;2024-02-15T05:38:53;12.27;;;4.15;;
85265;SDS011;75676;49.522;19.724;2024-02-15T05:41:20;7.15;;;3.10;;
85265;SDS011;75676;49.522;19.724;2024-02-15T05:43:46;9.80;;;2.90;;
85265;SDS011;75676;49.522;19.724;2024-02-15T05:46:18;5.47;;;2.55;;
85265;SDS011;75676;49.522;19.724;2024-02-15T05:48:46;8.63;;;4.20;;
85265;SDS011;75676;49.522;19.724;2024-02-15T05:51:12;6.80;;;3.35;;
85265;SDS011;75676;49.522;19.724;2024-02-15T05:53:38;10.98;;;4.10;;
85265;SDS011;75676;49.522;19.724;2024-02-15T05:56:05;12.57;;;4.07;;
85265;SDS011;75676;49.522;19.724;2024-02-15T05:58:32;10.80;;;4.28;;
85265;SDS011;75676;49.522;19.724;2024-02-15T06:00:58;9.88;;;4.38;;
85265;SDS011;75676;49.522;19.724;2024-02-15T06:03:33;8.18;;;3.95;;
85265;SDS011;75676;49.522;19.724;2024-02-15T06:06:01;9.43;;;3.92;;
85265;SDS011;75676;49.522;19.724;2024-02-15T06:08:35;11.23;;;5.07;;
85265;SDS011;75676;49.522;19.724;2024-02-15T06:11:02;8.57;;;4.45;;
85265;SDS011;75676;49.522;19.724;2024-02-15T06:13:29;11.85;;;5.03;;
85265;SDS011;75676;49.522;19.724;2024-02-15T06:15:56;28.95;;;13.13;;
85265;SDS011;75676;49.522;19.724;2024-02-15T06:18:23;14.18;;;5.85;;
85265;SDS011;75676;49.522;19.724;2024-02-15T06:20:51;17.92;;;7.60;;
85265;SDS011;75676;49.522;19.724;2024-02-15T06:23:17;14.15;;;5.80;;
85265;SDS011;75676;49.522;19.724;2024-02-15T06:25:44;12.93;;;5.20;;
85265;SDS011;75676;49.522;19.724;2024-02-15T06:28:10;37.00;;;22.80;;
85265;SDS011;75676;49.522;19.724;2024-02-15T06:30:47;33.28;;;14.95;;
85265;SDS011;75676;49.522;19.724;2024-02-15T06:33:31;55.15;;;21.42;;
85265;SDS011;75676;49.522;19.724;2024-02-15T06:36:16;59.55;;;26.40;;
85265;SDS011;75676;49.522;19.724;2024-02-15T06:39:00;62.88;;;28.25;;
85265;SDS011;75676;49.522;19.724;2024-02-15T06:41:44;75.68;;;36.53;;
85265;SDS011;75676;49.522;19.724;2024-02-15T06:44:10;52.08;;;23.98;;
85265;SDS011;75676;49.522;19.724;2024-02-15T06:46:37;54.10;;;23.50;;
85265;SDS011;75676;49.522;19.724;2024-02-15T06:49:04;34.80;;;16.40;;
85265;SDS011;75676;49.522;19.724;2024-02-15T06:51:30;36.33;;;16.13;;
85265;SDS011;75676;49.522;19.724;2024-02-15T06:53:55;32.92;;;16.05;;
85265;SDS011;75676;49.522;19.724;2024-02-15T06:56:21;38.13;;;15.50;;
85265;SDS011;75676;49.522;19.724;2024-02-15T06:58:49;36.88;;;16.67;;
85265;SDS011;75676;49.522;19.724;2024-02-15T07:01:15;27.83;;;14.65;;
85265;SDS011;75676;49.522;19.724;2024-02-15T07:03:44;29.83;;;12.63;;
85265;SDS011;75676;49.522;19.724;2024-02-15T07:06:10;37.92;;;17.33;;
85265;SDS011;75676;49.522;19.724;2024-02-15T07:08:39;41.05;;;18.80;;
85265;SDS011;75676;49.522;19.724;2024-02-15T07:11:08;31.85;;;15.95;;
85265;SDS011;75676;49.522;19.724;2024-02-15T07:13:35;27.88;;;13.35;;
85265;SDS011;75676;49.522;19.724;2024-02-15T07:16:07;29.85;;;13.75;;
85265;SDS011;75676;49.522;19.724;2024-02-15T07:18:35;35.72;;;16.27;;
85265;SDS011;75676;49.522;19.724;2024-02-15T07:21:01;30.73;;;15.45;;
85265;SDS011;75676;49.522;19.724;2024-02-15T07:23:29;31.98;;;13.80;;
85265;SDS011;75676;49.522;19.724;2024-02-15T07:25:54;29.73;;;14.07;;
85265;SDS011;75676;49.522;19.724;2024-02-15T07:28:20;26.27;;;13.30;;
85265;SDS011;75676;49.522;19.724;2024-02-15T07:30:46;21.50;;;10.32;;
85265;SDS011;75676;49.522;19.724;2024-02-15T07:33:16;21.65;;;10.27;;
85265;SDS011;75676;49.522;19.724;2024-02-15T07:35:43;28.02;;;11.73;;
85265;SDS011;75676;49.522;19.724;2024-02-15T07:38:09;32.63;;;13.77;;
85265;SDS011;75676;49.522;19.724;2024-02-15T07:40:36;30.40;;;14.57;;
85265;SDS011;75676;49.522;19.724;2024-02-15T07:43:05;23.10;;;10.65;;
85265;SDS011;75676;49.522;19.724;2024-02-15T07:45:31;26.13;;;11.85;;
85265;SDS011;75676;49.522;19.724;2024-02-15T07:48:00;32.90;;;13.35;;
85265;SDS011;75676;49.522;19.724;2024-02-15T07:50:26;34.30;;;15.75;;
85265;SDS011;75676;49.522;19.724;2024-02-15T07:52:52;35.63;;;14.95;;
85265;SDS011;75676;49.522;19.724;2024-02-15T07:55:18;36.75;;;16.70;;
85265;SDS011;75676;49.522;19.724;2024-02-15T07:57:44;29.67;;;13.40;;
85265;SDS011;75676;49.522;19.724;2024-02-15T08:00:13;38.22;;;16.73;;
85265;SDS011;75676;49.522;19.724;2024-02-15T08:02:42;36.63;;;16.23;;
85265;SDS011;75676;49.522;19.724;2024-02-15T08:05:12;37.53;;;15.02;;
85265;SDS011;75676;49.522;19.724;2024-02-15T08:07:43;40.00;;;16.63;;
85265;SDS011;75676;49.522;19.724;2024-02-15T08:10:11;40.25;;;16.25;;
85265;SDS011;75676;49.522;19.724;2024-02-15T08:12:43;41.28;;;16.83;;
85265;SDS011;75676;49.522;19.724;2024-02-15T08:15:12;29.10;;;10.73;;
85265;SDS011;75676;49.522;19.724;2024-02-15T08:17:41;28.35;;;12.13;;
85265;SDS011;75676;49.522;19.724;2024-02-15T08:20:12;20.70;;;9.77;;
85265;SDS011;75676;49.522;19.724;2024-02-15T08:22:39;26.35;;;11.25;;
85265;SDS011;75676;49.522;19.724;2024-02-15T08:25:14;25.08;;;10.77;;
85265;SDS011;75676;49.522;19.724;2024-02-15T08:27:46;17.95;;;8.65;;
85265;SDS011;75676;49.522;19.724;2024-02-15T08:30:15;28.65;;;12.43;;
85265;SDS011;75676;49.522;19.724;2024-02-15T08:32:41;23.70;;;10.02;;
85265;SDS011;75676;49.522;19.724;2024-02-15T08:35:08;27.60;;;10.07;;
85265;SDS011;75676;49.522;19.724;2024-02-15T08:37:35;24.58;;;10.85;;
85265;SDS011;75676;49.522;19.724;2024-02-15T08:40:03;21.33;;;10.55;;
85265;SDS011;75676;49.522;19.724;2024-02-15T08:42:30;30.30;;;13.20;;
85265;SDS011;75676;49.522;19.724;2024-02-15T08:44:56;34.67;;;15.48;;
85265;SDS011;75676;49.522;19.724;2024-02-15T08:47:24;46.92;;;19.17;;
85265;SDS011;75676;49.522;19.724;2024-02-15T08:52:50;24.60;;;11.27;;
85265;SDS011;75676;49.522;19.724;2024-02-15T08:55:16;31.52;;;14.65;;
85265;SDS011;75676;49.522;19.724;2024-02-15T08:57:42;25.25;;;11.15;;
85265;SDS011;75676;49.522;19.724;2024-02-15T09:00:09;22.00;;;10.73;;
85265;SDS011;75676;49.522;19.724;2024-02-15T09:02:48;25.13;;;12.02;;
85265;SDS011;75676;49.522;19.724;2024-02-15T09:05:18;22.77;;;11.23;;
85265;SDS011;75676;49.522;19.724;2024-02-15T09:07:47;25.20;;;10.50;;
85265;SDS011;75676;49.522;19.724;2024-02-15T09:10:16;23.95;;;11.68;;
85265;SDS011;75676;49.522;19.724;2024-02-15T09:12:42;18.42;;;7.95;;
85265;SDS011;75676;49.522;19.724;2024-02-15T09:15:12;17.55;;;8.35;;
85265;SDS011;75676;49.522;19.724;2024-02-15T09:17:38;20.13;;;8.35;;
85265;SDS011;75676;49.522;19.724;2024-02-15T09:20:07;18.40;;;8.05;;
85265;SDS011;75676;49.522;19.724;2024-02-15T09:25:17;15.70;;;6.78;;
85265;SDS011;75676;49.522;19.724;2024-02-15T09:27:44;14.80;;;6.95;;
85265;SDS011;75676;49.522;19.724;2024-02-15T09:30:11;14.98;;;6.40;;
85265;SDS011;75676;49.522;19.724;2024-02-15T09:32:41;16.10;;;6.43;;
85265;SDS011;75676;49.522;19.724;2024-02-15T09:35:08;14.43;;;7.30;;
85265;SDS011;75676;49.522;19.724;2024-02-15T09:37:38;17.92;;;7.68;;
85265;SDS011;75676;49.522;19.724;2024-02-15T09:40:12;23.90;;;8.75;;
85265;SDS011;75676;49.522;19.724;2024-02-15T09:42:40;18.30;;;6.93;;
85265;SDS011;75676;49.522;19.724;2024-02-15T09:45:06;16.58;;;8.40;;
85265;SDS011;75676;49.522;19.724;2024-02-15T09:47:36;20.85;;;7.25;;
85265;SDS011;75676;49.522;19.724;2024-02-15T09:50:06;20.52;;;6.82;;
85265;SDS011;75676;49.522;19.724;2024-02-15T09:52:33;20.02;;;8.40;;
85265;SDS011;75676;49.522;19.724;2024-02-15T09:55:03;17.65;;;7.00;;
85265;SDS011;75676;49.522;19.724;2024-02-15T09:57:30;15.95;;;7.57;;
85265;SDS011;75676;49.522;19.724;2024-02-15T10:00:00;15.55;;;6.95;;
85265;SDS011;75676;49.522;19.724;2024-02-15T10:02:28;15.23;;;6.80;;
85265;SDS011;75676;49.522;19.724;2024-02-15T10:04:56;11.85;;;5.43;;
85265;SDS011;75676;49.522;19.724;2024-02-15T10:07:23;11.60;;;4.97;;
85265;SDS011;75676;49.522;19.724;2024-02-15T10:09:52;9.80;;;4.40;;
85265;SDS011;75676;49.522;19.724;2024-02-15T10:12:18;16.35;;;4.68;;
85265;SDS011;75676;49.522;19.724;2024-02-15T10:14:50;14.45;;;5.68;;
85265;SDS011;75676;49.522;19.724;2024-02-15T10:17:17;8.50;;;4.10;;
85265;SDS011;75676;49.522;19.724;2024-02-15T10:19:44;10.63;;;4.85;;
85265;SDS011;75676;49.522;19.724;2024-02-15T10:22:12;7.75;;;3.75;;
85265;SDS011;75676;49.522;19.724;2024-02-15T10:24:40;7.78;;;3.72;;
85265;SDS011;75676;49.522;19.724;2024-02-15T10:27:06;8.30;;;3.95;;
85265;SDS011;75676;49.522;19.724;2024-02-15T10:29:33;7.63;;;4.22;;
85265;SDS011;75676;49.522;19.724;2024-02-15T10:31:59;9.35;;;4.03;;
85265;SDS011;75676;49.522;19.724;2024-02-15T10:34:26;12.90;;;4.10;;
85265;SDS011;75676;49.522;19.724;2024-02-15T10:40:03;12.75;;;3.90;;
85265;SDS011;75676;49.522;19.724;2024-02-15T10:42:32;9.85;;;3.33;;
85265;SDS011;75676;49.522;19.724;2024-02-15T10:45:01;5.18;;;2.65;;
85265;SDS011;75676;49.522;19.724;2024-02-15T10:47:32;5.47;;;2.67;;
85265;SDS011;75676;49.522;19.724;2024-02-15T10:49:59;8.40;;;2.97;;
85265;SDS011;75676;49.522;19.724;2024-02-15T10:52:25;7.15;;;3.65;;
85265;SDS011;75676;49.522;19.724;2024-02-15T10:55:00;10.77;;;5.00;;
85265;SDS011;75676;49.522;19.724;2024-02-15T10:57:34;14.30;;;5.30;;
85265;SDS011;75676;49.522;19.724;2024-02-15T11:00:05;11.32;;;4.55;;
85265;SDS011;75676;49.522;19.724;2024-02-15T11:02:38;10.98;;;4.72;;
85265;SDS011;75676;49.522;19.724;2024-02-15T11:05:12;10.25;;;4.60;;
85265;SDS011;75676;49.522;19.724;2024-02-15T11:07:46;7.15;;;3.65;;
85265;SDS011;75676;49.522;19.724;2024-02-15T11:10:11;11.63;;;4.95;;
85265;SDS011;75676;49.522;19.724;2024-02-15T11:12:42;6.30;;;2.80;;
85265;SDS011;75676;49.522;19.724;2024-02-15T11:15:11;6.10;;;3.25;;
85265;SDS011;75676;49.522;19.724;2024-02-15T11:23:01;8.90;;;4.18;;
85265;SDS011;75676;49.522;19.724;2024-02-15T11:25:38;8.80;;;4.05;;
85265;SDS011;75676;49.522;19.724;2024-02-15T11:30:49;5.20;;;2.50;;
85265;SDS011;75676;49.522;19.724;2024-02-15T11:36:13;7.03;;;3.28;;
85265;SDS011;75676;49.522;19.724;2024-02-15T11:38:39;7.32;;;3.38;;
85265;SDS011;75676;49.522;19.724;2024-02-15T11:41:10;8.20;;;4.75;;
85265;SDS011;75676;49.522;19.724;2024-02-15T11:46:14;7.53;;;2.97;;
85265;SDS011;75676;49.522;19.724;2024-02-15T11:48:50;11.00;;;5.18;;
85265;SDS011;75676;49.522;19.724;2024-02-15T11:51:24;8.02;;;4.05;;
85265;SDS011;75676;49.522;19.724;2024-02-15T11:54:24;6.00;;;3.00;;
85265;SDS011;75676;49.522;19.724;2024-02-15T11:59:41;5.10;;;3.72;;
85265;SDS011;75676;49.522;19.724;2024-02-15T12:02:21;7.38;;;3.05;;
85265;SDS011;75676;49.522;19.724;2024-02-15T12:05:05;3.92;;;2.22;;
85265;SDS011;75676;49.522;19.724;2024-02-15T12:07:52;8.55;;;2.90;;
85265;SDS011;75676;49.522;19.724;2024-02-15T12:10:37;6.70;;;3.17;;
85265;SDS011;75676;49.522;19.724;2024-02-15T12:13:21;5.57;;;3.03;;
85265;SDS011;75676;49.522;19.724;2024-02-15T12:16:05;5.90;;;2.78;;
85265;SDS011;75676;49.522;19.724;2024-02-15T12:18:50;4.18;;;2.50;;
85265;SDS011;75676;49.522;19.724;2024-02-15T12:21:20;7.80;;;2.38;;
85265;SDS011;75676;49.522;19.724;2024-02-15T12:23:50;4.55;;;2.25;;
85265;SDS011;75676;49.522;19.724;2024-02-15T12:26:20;3.35;;;1.77;;
85265;SDS011;75676;49.522;19.724;2024-02-15T12:28:52;3.05;;;1.83;;
85265;SDS011;75676;49.522;19.724;2024-02-15T12:31:20;3.25;;;1.70;;
85265;SDS011;75676;49.522;19.724;2024-02-15T12:33:46;3.72;;;1.70;;
85265;SDS011;75676;49.522;19.724;2024-02-15T12:36:14;3.28;;;1.80;;
85265;SDS011;75676;49.522;19.724;2024-02-15T12:38:42;4.80;;;2.03;;
85265;SDS011;75676;49.522;19.724;2024-02-15T12:41:19;8.80;;;4.22;;
85265;SDS011;75676;49.522;19.724;2024-02-15T12:43:45;19.45;;;4.80;;
85265;SDS011;75676;49.522;19.724;2024-02-15T12:46:12;12.52;;;5.38;;
85265;SDS011;75676;49.522;19.724;2024-02-15T12:48:43;6.10;;;3.20;;
85265;SDS011;75676;49.522;19.724;2024-02-15T12:51:13;5.53;;;2.35;;
85265;SDS011;75676;49.522;19.724;2024-02-15T12:53:40;7.90;;;3.13;;
85265;SDS011;75676;49.522;19.724;2024-02-15T12:56:07;4.25;;;2.33;;
85265;SDS011;75676;49.522;19.724;2024-02-15T12:58:34;4.05;;;1.98;;
85265;SDS011;75676;49.522;19.724;2024-02-15T13:01:00;6.40;;;1.95;;
85265;SDS011;75676;49.522;19.724;2024-02-15T13:03:27;4.05;;;1.95;;
85265;SDS011;75676;49.522;19.724;2024-02-15T13:05:53;3.70;;;1.95;;
85265;SDS011;75676;49.522;19.724;2024-02-15T13:08:19;5.38;;;2.20;;
85265;SDS011;75676;49.522;19.724;2024-02-15T13:10:45;2.72;;;1.58;;
85265;SDS011;75676;49.522;19.724;2024-02-15T13:13:12;5.13;;;2.15;;
85265;SDS011;75676;49.522;19.724;2024-02-15T13:15:39;4.18;;;1.83;;
85265;SDS011;75676;49.522;19.724;2024-02-15T13:18:05;3.53;;;1.85;;
85265;SDS011;75676;49.522;19.724;2024-02-15T13:20:34;3.08;;;1.52;;
85265;SDS011;75676;49.522;19.724;2024-02-15T13:23:09;3.97;;;1.70;;
85265;SDS011;75676;49.522;19.724;2024-02-15T13:25:48;3.30;;;1.67;;
85265;SDS011;75676;49.522;19.724;2024-02-15T13:28:15;4.80;;;2.25;;
85265;SDS011;75676;49.522;19.724;2024-02-15T13:30:41;5.10;;;2.38;;
85265;SDS011;75676;49.522;19.724;2024-02-15T13:33:11;7.70;;;2.88;;
85265;SDS011;75676;49.522;19.724;2024-02-15T13:35:37;11.02;;;4.03;;
85265;SDS011;75676;49.522;19.724;2024-02-15T13:38:03;7.20;;;2.88;;
85265;SDS011;75676;49.522;19.724;2024-02-15T13:40:29;8.75;;;3.65;;
85265;SDS011;75676;49.522;19.724;2024-02-15T13:42:58;11.80;;;4.05;;
85265;SDS011;75676;49.522;19.724;2024-02-15T13:47:58;4.22;;;1.98;;
85265;SDS011;75676;49.522;19.724;2024-02-15T13:50:28;5.38;;;2.22;;
85265;SDS011;75676;49.522;19.724;2024-02-15T13:52:58;3.33;;;1.65;;
85265;SDS011;75676;49.522;19.724;2024-02-15T13:55:24;3.92;;;2.03;;
85265;SDS011;75676;49.522;19.724;2024-02-15T13:57:51;8.50;;;2.30;;
85265;SDS011;75676;49.522;19.724;2024-02-15T14:00:18;4.53;;;1.85;;
85265;SDS011;75676;49.522;19.724;2024-02-15T14:02:48;4.68;;;2.00;;
85265;SDS011;75676;49.522;19.724;2024-02-15T14:05:15;2.80;;;1.67;;
85265;SDS011;75676;49.522;19.724;2024-02-15T14:07:48;3.65;;;1.67;;
85265;SDS011;75676;49.522;19.724;2024-02-15T14:10:23;6.18;;;2.50;;
85265;SDS011;75676;49.522;19.724;2024-02-15T14:12:57;5.03;;;2.10;;
85265;SDS011;75676;49.522;19.724;2024-02-15T14:15:31;5.80;;;2.00;;
85265;SDS011;75676;49.522;19.724;2024-02-15T14:20:44;8.15;;;3.22;;
85265;SDS011;75676;49.522;19.724;2024-02-15T14:23:12;11.05;;;6.35;;
85265;SDS011;75676;49.522;19.724;2024-02-15T14:25:41;3.58;;;2.25;;
85265;SDS011;75676;49.522;19.724;2024-02-15T14:28:10;9.77;;;2.63;;
85265;SDS011;75676;49.522;19.724;2024-02-15T14:30:36;6.38;;;3.38;;
85265;SDS011;75676;49.522;19.724;2024-02-15T14:33:23;3.25;;;1.60;;
85265;SDS011;75676;49.522;19.724;2024-02-15T14:35:49;8.00;;;2.47;;
85265;SDS011;75676;49.522;19.724;2024-02-15T14:38:18;5.13;;;2.22;;
85265;SDS011;75676;49.522;19.724;2024-02-15T14:40:47;5.47;;;3.08;;
85265;SDS011;75676;49.522;19.724;2024-02-15T14:43:25;5.00;;;2.55;;
85265;SDS011;75676;49.522;19.724;2024-02-15T14:45:52;5.30;;;2.75;;
85265;SDS011;75676;49.522;19.724;2024-02-15T14:48:19;6.60;;;3.10;;
85265;SDS011;75676;49.522;19.724;2024-02-15T14:50:45;5.32;;;2.92;;
85265;SDS011;75676;49.522;19.724;2024-02-15T14:53:12;8.48;;;3.40;;
85265;SDS011;75676;49.522;19.724;2024-02-15T14:55:38;11.60;;;4.35;;
85265;SDS011;75676;49.522;19.724;2024-02-15T14:58:05;13.25;;;3.28;;
85265;SDS011;75676;49.522;19.724;2024-02-15T15:00:33;6.68;;;2.30;;
85265;SDS011;75676;49.522;19.724;2024-02-15T15:02:59;5.80;;;2.65;;